CDG weather

Charles de Gaulle International Airport
Paris, Île-de-France, France

Public forecast

Using degrees Celsius for public forecast. Weather courtesy of forecast.io.

METAR (pilot weather report)

Retrieved 2018/05/23 06:30 UTC (14 minutes ago):

LFPG 230630Z 01010KT 320V090 2000 BR BKN004 12/11 Q1018 NOSIG

TAF (pilot weather forecast)

Retrieved 2018/05/23 06:21 UTC (23 minutes ago):

TAF LFPG 230500Z 2306/2412 01008KT 4000 BR BKN004 BECMG 2307/2309 9999 NSW SCT020 PROB40 TEMPO 2312/2320 3000 TSRA SCT030CB PROB30 TEMPO 2314/2318 VRB15G25KT 1500 TSRAGR SCT030CB TEMPO 2400/2406 3000 BR TX22/2314Z TN14/2405Z